createdAt,value
2023-02-14T00:00:10.576Z,0.88
2023-02-14T00:01:11.226Z,0.88
2023-02-14T00:02:12.179Z,0.92
2023-02-14T00:03:13.303Z,0.94
2023-02-14T00:04:13.920Z,1.03
2023-02-14T00:05:14.083Z,1.09
2023-02-14T00:06:14.997Z,1.18
2023-02-14T00:07:15.912Z,1.14
2023-02-14T00:08:16.407Z,1.27
2023-02-14T00:09:16.413Z,1.18
2023-02-14T00:10:17.340Z,1.27
2023-02-14T00:11:17.618Z,1.34
2023-02-14T00:12:18.443Z,1.45
2023-02-14T00:13:18.662Z,1.4
2023-02-14T00:14:19.614Z,1.39
2023-02-14T00:15:20.145Z,1.4
2023-02-14T00:16:20.224Z,1.4
2023-02-14T00:17:20.343Z,1.42
2023-02-14T00:18:21.241Z,1.43
2023-02-14T00:19:21.999Z,1.42
2023-02-14T00:20:23.241Z,1.53
2023-02-14T00:21:23.153Z,1.56
2023-02-14T00:22:24.085Z,1.45
2023-02-14T00:23:25.283Z,1.45
2023-02-14T00:24:25.546Z,1.43
2023-02-14T00:25:25.751Z,1.48
2023-02-14T00:26:26.005Z,1.43
2023-02-14T00:27:25.927Z,1.45
2023-02-14T00:28:27.424Z,1.4
2023-02-14T00:29:27.521Z,1.38
2023-02-14T00:30:28.105Z,1.42
2023-02-14T00:31:29.078Z,1.42
2023-02-14T00:32:29.175Z,1.38
2023-02-14T00:33:29.412Z,1.5
2023-02-14T00:34:29.343Z,1.45
2023-02-14T00:35:29.979Z,1.43
2023-02-14T00:36:30.313Z,1.39
2023-02-14T00:37:31.228Z,1.45
2023-02-14T00:38:31.450Z,1.39
2023-02-14T00:39:32.061Z,1.3
2023-02-14T00:40:32.253Z,1.3
2023-02-14T00:41:32.231Z,1.31
2023-02-14T00:42:32.776Z,1.21
2023-02-14T00:43:32.722Z,1.22
2023-02-14T00:44:32.981Z,1.18
2023-02-14T00:45:33.801Z,1.21
2023-02-14T00:46:35.196Z,1.16
2023-02-14T00:47:34.886Z,1.21
2023-02-14T00:48:36.393Z,1.2
2023-02-14T00:49:36.685Z,1.24
2023-02-14T00:50:36.876Z,1.18
2023-02-14T00:51:36.774Z,1.13
2023-02-14T00:52:37.674Z,1.16
2023-02-14T00:53:38.582Z,1.13
2023-02-14T00:54:38.525Z,1.12
2023-02-14T00:55:39.827Z,1.14
2023-02-14T00:56:40.088Z,1.12
2023-02-14T00:57:40.301Z,1.16
2023-02-14T00:58:40.681Z,1.06
2023-02-14T00:59:41.353Z,1.09
2023-02-14T01:00:41.749Z,1
2023-02-14T01:01:42.404Z,0.94
2023-02-14T01:02:43.062Z,0.95
2023-02-14T01:03:43.595Z,0.94
2023-02-14T01:04:44.263Z,0.94
2023-02-14T01:05:44.484Z,0.82
2023-02-14T01:06:45.712Z,0.88
2023-02-14T01:07:46.642Z,0.84
2023-02-14T01:08:46.671Z,0.7
2023-02-14T01:09:46.818Z,0.73
2023-02-14T01:10:47.464Z,0.73
2023-02-14T01:11:47.860Z,0.67
2023-02-14T01:12:48.287Z,0.76
2023-02-14T01:13:48.842Z,0.73
2023-02-14T01:14:48.793Z,0.73
2023-02-14T01:15:49.418Z,0.7
2023-02-14T01:16:50.464Z,0.74
2023-02-14T01:17:50.480Z,0.73
2023-02-14T01:18:51.759Z,0.7
2023-02-14T01:19:52.806Z,0.81
2023-02-14T01:20:53.770Z,0.68
2023-02-14T01:21:54.757Z,0.71
2023-02-14T01:22:54.404Z,0.73
2023-02-14T01:23:54.767Z,0.81
2023-02-14T01:24:56.252Z,0.81
2023-02-14T01:25:56.789Z,0.84
2023-02-14T01:26:57.074Z,0.85
2023-02-14T01:27:57.018Z,0.84
2023-02-14T01:28:58.263Z,0.85
2023-02-14T01:29:58.779Z,0.78
2023-02-14T01:30:59.598Z,0.73
2023-02-14T01:32:00.380Z,0.7
2023-02-14T01:33:00.803Z,0.68
2023-02-14T01:34:01.714Z,0.76
2023-02-14T01:35:01.381Z,0.73
2023-02-14T01:36:02.324Z,0.78
2023-02-14T01:37:03.236Z,0.78
2023-02-14T01:38:03.853Z,0.76
2023-02-14T01:39:04.345Z,0.77
2023-02-14T01:40:04.598Z,0.76
2023-02-14T01:41:04.843Z,0.74
2023-02-14T01:42:05.118Z,0.71
2023-02-14T01:43:05.509Z,0.77
2023-02-14T01:44:06.442Z,0.78
2023-02-14T01:45:07.756Z,0.74
2023-02-14T01:46:08.188Z,0.68
2023-02-14T01:47:08.716Z,0.68
2023-02-14T01:48:09.435Z,0.66
2023-02-14T01:49:10.640Z,0.63
2023-02-14T01:50:11.366Z,0.68
2023-02-14T01:51:11.850Z,0.73
2023-02-14T01:52:12.043Z,0.66
2023-02-14T01:53:12.277Z,0.61
2023-02-14T01:54:12.928Z,0.71
2023-02-14T01:55:13.431Z,0.7
2023-02-14T01:56:13.353Z,0.59
2023-02-14T01:57:14.432Z,0.7
2023-02-14T01:58:14.640Z,0.61
2023-02-14T01:59:15.156Z,0.63
2023-02-14T02:00:15.246Z,0.66
2023-02-14T02:01:16.310Z,0.61
2023-02-14T02:02:17.258Z,0.49
2023-02-14T02:03:17.381Z,0.47
2023-02-14T02:04:18.305Z,0.52
2023-02-14T02:05:18.806Z,0.49
2023-02-14T02:06:18.709Z,0.56
2023-02-14T02:07:19.380Z,0.45
2023-02-14T02:08:20.601Z,0.48
2023-02-14T02:09:21.503Z,0.45
2023-02-14T02:10:22.293Z,0.4
2023-02-14T02:11:23.500Z,0.4
2023-02-14T02:12:24.044Z,0.47
2023-02-14T02:13:25.033Z,0.44
2023-02-14T02:14:25.272Z,0.39
2023-02-14T02:15:25.556Z,0.4
2023-02-14T02:16:26.699Z,0.47
2023-02-14T02:17:27.009Z,0.47
2023-02-14T02:18:27.223Z,0.48
2023-02-14T02:19:27.859Z,0.58
2023-02-14T02:20:28.506Z,0.55
2023-02-14T02:21:28.993Z,0.61
2023-02-14T02:22:29.907Z,0.63
2023-02-14T02:23:30.546Z,0.68
2023-02-14T02:24:31.752Z,0.67
2023-02-14T02:25:32.366Z,0.74
2023-02-14T02:26:33.622Z,0.66
2023-02-14T02:27:33.592Z,0.66
2023-02-14T02:28:34.830Z,0.71
2023-02-14T02:29:34.784Z,0.66
2023-02-14T02:30:35.618Z,0.67
2023-02-14T02:31:36.426Z,0.73
2023-02-14T02:32:36.264Z,0.66
2023-02-14T02:33:36.895Z,0.67
2023-02-14T02:34:37.392Z,0.63
2023-02-14T02:35:38.313Z,0.68
2023-02-14T02:36:38.499Z,0.68
2023-02-14T02:37:39.418Z,0.63
2023-02-14T02:38:40.066Z,0.67
2023-02-14T02:39:40.680Z,0.66
2023-02-14T02:40:40.883Z,0.7
2023-02-14T02:41:41.524Z,0.74
2023-02-14T02:42:42.772Z,0.78
2023-02-14T02:43:42.712Z,0.85
2023-02-14T02:44:43.925Z,0.82
2023-02-14T02:45:45.174Z,0.82
2023-02-14T02:46:45.723Z,0.74
2023-02-14T02:47:46.274Z,0.82
2023-02-14T02:48:46.759Z,0.81
2023-02-14T02:49:47.412Z,0.74
2023-02-14T02:50:48.694Z,0.78
2023-02-14T02:51:49.055Z,0.66
2023-02-14T02:52:50.250Z,0.63
2023-02-14T02:53:51.174Z,0.66
2023-02-14T02:54:51.373Z,0.67
2023-02-14T02:55:52.033Z,0.58
2023-02-14T02:56:53.013Z,0.64
2023-02-14T02:57:53.730Z,0.59
2023-02-14T02:58:53.659Z,0.59
2023-02-14T02:59:54.304Z,0.67
2023-02-14T03:00:54.716Z,0.74
2023-02-14T03:01:55.340Z,0.66
2023-02-14T03:02:55.726Z,0.64
2023-02-14T03:03:56.080Z,0.74
2023-02-14T03:04:56.955Z,0.67
2023-02-14T03:05:58.052Z,0.7
2023-02-14T03:06:58.270Z,0.7
2023-02-14T03:07:58.476Z,0.76
2023-02-14T03:08:58.958Z,0.78
2023-02-14T03:09:58.877Z,0.76
2023-02-14T03:11:00.932Z,0.81
2023-02-14T03:12:01.013Z,0.81
2023-02-14T03:13:01.575Z,0.73
2023-02-14T03:14:01.245Z,0.77
2023-02-14T03:15:01.924Z,0.77
2023-02-14T03:16:02.627Z,0.81
2023-02-14T03:17:02.776Z,0.77
2023-02-14T03:18:02.994Z,0.78
2023-02-14T03:19:04.196Z,0.82
2023-02-14T03:20:04.404Z,0.77
2023-02-14T03:21:04.972Z,0.84
2023-02-14T03:22:04.908Z,0.76
2023-02-14T03:23:06.143Z,0.68
2023-02-14T03:24:06.340Z,0.71
2023-02-14T03:25:06.553Z,0.64
2023-02-14T03:26:06.779Z,0.52
2023-02-14T03:27:07.724Z,0.51
2023-02-14T03:28:08.682Z,0.44
2023-02-14T03:29:09.186Z,0.44
2023-02-14T03:30:09.567Z,0.44
2023-02-14T03:31:10.874Z,0.4
2023-02-14T03:32:10.693Z,0.4
2023-02-14T03:33:11.103Z,0.36
2023-02-14T03:34:11.029Z,0.47
2023-02-14T03:35:12.218Z,0.45
2023-02-14T03:36:12.429Z,0.4
2023-02-14T03:37:13.621Z,0.45
2023-02-14T03:38:13.258Z,0.34
2023-02-14T03:39:14.462Z,0.45
2023-02-14T03:40:15.384Z,0.27
2023-02-14T03:41:15.417Z,0.19
2023-02-14T03:42:16.060Z,0.13
2023-02-14T03:43:16.789Z,0.2
2023-02-14T03:44:16.774Z,0.08
2023-02-14T03:45:18.188Z,0.06
2023-02-14T03:46:18.200Z,0.05
2023-02-14T03:47:19.333Z,0.01
2023-02-14T03:48:19.240Z,-0.18
2023-02-14T03:49:19.729Z,-0.13
2023-02-14T03:50:20.661Z,-0.27
2023-02-14T03:51:21.203Z,-0.26
2023-02-14T03:52:22.132Z,-0.18
2023-02-14T03:53:22.688Z,-0.21
2023-02-14T03:54:23.309Z,-0.18
2023-02-14T03:55:23.237Z,-0.21
2023-02-14T03:56:23.735Z,-0.23
2023-02-14T03:57:24.246Z,-0.23
2023-02-14T03:58:24.584Z,-0.23
2023-02-14T03:59:24.818Z,-0.23
2023-02-14T04:00:25.348Z,-0.21
2023-02-14T04:01:25.588Z,-0.27
2023-02-14T04:02:25.342Z,-0.31
2023-02-14T04:03:26.562Z,-0.36
2023-02-14T04:04:26.600Z,-0.48
2023-02-14T04:05:28.089Z,-0.39
2023-02-14T04:06:28.028Z,-0.54
2023-02-14T04:07:28.975Z,-0.48
2023-02-14T04:08:29.522Z,-0.46
2023-02-14T04:09:29.731Z,-0.42
2023-02-14T04:10:30.935Z,-0.46
2023-02-14T04:11:31.216Z,-0.51
2023-02-14T04:12:43.185Z,-0.42
2023-02-14T04:13:32.473Z,-0.41
2023-02-14T04:14:32.446Z,-0.45
2023-02-14T04:15:33.028Z,-0.42
2023-02-14T04:16:33.370Z,-0.41
2023-02-14T04:17:34.287Z,-0.39
2023-02-14T04:18:34.513Z,-0.38
2023-02-14T04:19:34.719Z,-0.38
2023-02-14T04:20:35.296Z,-0.27
2023-02-14T04:21:35.360Z,-0.24
2023-02-14T04:22:35.266Z,-0.26
2023-02-14T04:23:35.801Z,-0.18
2023-02-14T04:24:35.998Z,-0.23
2023-02-14T04:25:36.956Z,-0.18
2023-02-14T04:26:37.167Z,-0.24
2023-02-14T04:27:37.391Z,-0.23
2023-02-14T04:28:37.953Z,-0.21
2023-02-14T04:29:38.159Z,-0.21
2023-02-14T04:30:38.826Z,-0.21
2023-02-14T04:31:40.367Z,-0.23
2023-02-14T04:32:40.041Z,-0.24
2023-02-14T04:33:40.696Z,-0.24
2023-02-14T04:34:41.924Z,-0.27
2023-02-14T04:35:42.140Z,-0.28
2023-02-14T04:36:42.659Z,-0.33
2023-02-14T04:37:43.156Z,-0.3
2023-02-14T04:38:43.645Z,-0.24
2023-02-14T04:39:44.145Z,-0.35
2023-02-14T04:40:44.634Z,-0.38
2023-02-14T04:41:45.238Z,-0.31
2023-02-14T04:42:45.881Z,-0.28
2023-02-14T04:43:46.597Z,-0.31
2023-02-14T04:44:46.829Z,-0.36
2023-02-14T04:45:47.772Z,-0.36
2023-02-14T04:46:48.931Z,-0.38
2023-02-14T04:47:49.931Z,-0.41
2023-02-14T04:48:50.167Z,-0.38
2023-02-14T04:49:50.801Z,-0.36
2023-02-14T04:50:50.709Z,-0.36
2023-02-14T04:51:51.021Z,-0.31
2023-02-14T04:52:51.371Z,-0.27
2023-02-14T04:53:52.291Z,-0.27
2023-02-14T04:54:52.536Z,-0.23
2023-02-14T04:55:53.467Z,-0.23
2023-02-14T04:56:54.182Z,-0.26
2023-02-14T04:57:55.152Z,-0.21
2023-02-14T04:58:56.153Z,-0.24
2023-02-14T04:59:56.217Z,-0.2
2023-02-14T05:00:57.186Z,-0.1
2023-02-14T05:01:57.377Z,0
2023-02-14T05:02:57.788Z,-0.07
2023-02-14T05:03:58.183Z,0.02
2023-02-14T05:04:58.403Z,-0.05
2023-02-14T05:05:59.639Z,0.05
2023-02-14T05:07:00.554Z,0.08
2023-02-14T05:08:01.039Z,-0.07
2023-02-14T05:09:01.677Z,-0.05
2023-02-14T05:10:02.613Z,-0.12
2023-02-14T05:11:02.811Z,-0.1
2023-02-14T05:12:03.527Z,-0.1
2023-02-14T05:13:04.728Z,-0.09
2023-02-14T05:14:04.972Z,-0.07
2023-02-14T05:15:05.184Z,-0.2
2023-02-14T05:16:06.422Z,-0.05
2023-02-14T05:17:07.082Z,-0.1
2023-02-14T05:18:07.661Z,-0.18
2023-02-14T05:19:07.587Z,-0.2
2023-02-14T05:20:08.756Z,-0.18
2023-02-14T05:21:08.948Z,-0.28
2023-02-14T05:22:08.968Z,-0.24
2023-02-14T05:23:09.625Z,-0.3
2023-02-14T05:24:09.873Z,-0.28
2023-02-14T05:25:10.778Z,-0.31
2023-02-14T05:26:10.992Z,-0.27
2023-02-14T05:27:12.222Z,-0.27
2023-02-14T05:28:12.223Z,-0.3
2023-02-14T05:29:13.559Z,-0.3
2023-02-14T05:30:13.834Z,-0.35
2023-02-14T05:31:14.763Z,-0.38
2023-02-14T05:32:16.075Z,-0.35
2023-02-14T05:33:16.062Z,-0.26
2023-02-14T05:34:16.966Z,-0.3
2023-02-14T05:35:17.902Z,-0.26
2023-02-14T05:36:18.843Z,-0.2
2023-02-14T05:37:19.768Z,-0.24
2023-02-14T05:38:19.969Z,-0.24
2023-02-14T05:39:20.520Z,-0.21
2023-02-14T05:40:21.204Z,-0.26
2023-02-14T05:41:22.143Z,-0.24
2023-02-14T05:42:22.157Z,-0.18
2023-02-14T05:43:22.821Z,-0.15
2023-02-14T05:44:24.147Z,-0.23
2023-02-14T05:45:23.936Z,-0.17
2023-02-14T05:46:25.288Z,-0.12
2023-02-14T05:47:25.240Z,-0.09
2023-02-14T05:48:25.733Z,0.02
2023-02-14T05:49:26.375Z,0.05
2023-02-14T05:50:27.054Z,0.05
2023-02-14T05:51:28.001Z,0.08
2023-02-14T05:52:29.273Z,0.02
2023-02-14T05:53:29.912Z,0.13
2023-02-14T05:54:31.136Z,0.15
2023-02-14T05:55:31.341Z,0.15
2023-02-14T05:56:31.903Z,0.23
2023-02-14T05:57:32.152Z,0.18
2023-02-14T05:58:32.638Z,0.16
2023-02-14T05:59:32.899Z,0.2
2023-02-14T06:00:33.150Z,0.16
2023-02-14T06:01:33.849Z,0.2
2023-02-14T06:02:34.640Z,0.19
2023-02-14T06:03:35.301Z,0.24
2023-02-14T06:04:36.080Z,0.3
2023-02-14T06:05:35.880Z,0.26
2023-02-14T06:06:37.413Z,0.39
2023-02-14T06:07:37.919Z,0.33
2023-02-14T06:08:38.843Z,0.3
2023-02-14T06:09:38.761Z,0.27
2023-02-14T06:10:38.961Z,0.26
2023-02-14T06:11:39.321Z,0.3
2023-02-14T06:12:40.318Z,0.27
2023-02-14T06:13:40.940Z,0.29
2023-02-14T06:14:42.206Z,0.19
2023-02-14T06:15:42.158Z,0.23
2023-02-14T06:16:43.266Z,0.23
2023-02-14T06:17:43.309Z,0.19
2023-02-14T06:18:43.534Z,0.13
2023-02-14T06:19:43.467Z,0.08
2023-02-14T06:20:44.386Z,0.12
2023-02-14T06:21:44.285Z,0.08
2023-02-14T06:22:45.332Z,0.06
2023-02-14T06:23:45.942Z,0.05
2023-02-14T06:24:46.849Z,0
2023-02-14T06:25:47.769Z,0
2023-02-14T06:26:48.681Z,-0.12
2023-02-14T06:27:49.730Z,-0.1
2023-02-14T06:28:49.395Z,-0.12
2023-02-14T06:29:50.236Z,-0.1
2023-02-14T06:30:51.119Z,-0.13
2023-02-14T06:31:51.754Z,-0.13
2023-02-14T06:32:52.068Z,-0.15
2023-02-14T06:33:52.305Z,-0.2
2023-02-14T06:34:53.495Z,-0.13
2023-02-14T06:35:53.986Z,-0.17
2023-02-14T06:36:54.643Z,-0.15
2023-02-14T06:37:55.308Z,-0.17
2023-02-14T06:38:55.948Z,-0.15
2023-02-14T06:39:56.444Z,-0.13
2023-02-14T06:41:00.751Z,-0.13
2023-02-14T06:41:57.818Z,-0.05
2023-02-14T06:42:58.538Z,-0.02
2023-02-14T06:43:58.773Z,-0.07
2023-02-14T06:44:59.049Z,0.01
2023-02-14T06:45:59.511Z,0.08
2023-02-14T06:47:00.671Z,0.18
2023-02-14T06:48:00.942Z,0.16
2023-02-14T06:49:01.552Z,0.2
2023-02-14T06:50:02.755Z,0.31
2023-02-14T06:51:04.387Z,0.67
2023-02-14T06:52:04.327Z,0.92
2023-02-14T06:53:04.752Z,1.13
2023-02-14T06:54:05.685Z,1.4
2023-02-14T06:55:05.938Z,1.71
2023-02-14T06:56:06.619Z,1.84
2023-02-14T06:57:07.817Z,2.01
2023-02-14T06:58:08.306Z,2.1
2023-02-14T06:59:08.805Z,2.22
2023-02-14T07:00:09.801Z,2.36
2023-02-14T07:01:10.251Z,2.46
2023-02-14T07:02:11.266Z,2.41
2023-02-14T07:03:11.811Z,2.4
2023-02-14T07:04:12.040Z,2.41
2023-02-14T07:05:11.720Z,2.34
2023-02-14T07:06:13.262Z,2.28
2023-02-14T07:07:13.202Z,2.33
2023-02-14T07:08:13.712Z,2.34
2023-02-14T07:09:14.326Z,2.33
2023-02-14T07:10:15.012Z,2.28
2023-02-14T07:11:15.667Z,2.22
2023-02-14T07:12:16.587Z,2.34
2023-02-14T07:13:17.872Z,2.43
2023-02-14T07:14:17.808Z,2.57
2023-02-14T07:15:19.103Z,2.59
2023-02-14T07:16:19.316Z,2.7
2023-02-14T07:17:19.844Z,2.65
2023-02-14T07:18:20.084Z,2.7
2023-02-14T07:19:20.736Z,2.7
2023-02-14T07:20:20.676Z,2.52
2023-02-14T07:21:21.609Z,2.57
2023-02-14T07:22:21.519Z,2.62
2023-02-14T07:23:21.719Z,2.57
2023-02-14T07:24:21.937Z,2.75
2023-02-14T07:25:22.455Z,2.65
2023-02-14T07:26:22.648Z,2.7
2023-02-14T07:27:22.995Z,2.8
2023-02-14T07:28:24.495Z,2.93
2023-02-14T07:29:24.137Z,3.08
2023-02-14T07:30:25.082Z,3.34
2023-02-14T07:31:26.350Z,3.49
2023-02-14T07:32:27.021Z,3.4
2023-02-14T07:33:26.883Z,3.58
2023-02-14T07:34:27.920Z,3.67
2023-02-14T07:35:29.152Z,3.92
2023-02-14T07:36:28.786Z,4.1
2023-02-14T07:37:30.043Z,4.5
2023-02-14T07:38:30.302Z,4.68
2023-02-14T07:39:30.240Z,4.83
2023-02-14T07:40:30.622Z,5.1
2023-02-14T07:41:31.155Z,5.28
2023-02-14T07:42:31.641Z,5.26
2023-02-14T07:43:31.744Z,5.22
2023-02-14T07:44:32.667Z,5.28
2023-02-14T07:45:33.946Z,5.41
2023-02-14T07:46:34.397Z,5.79
2023-02-14T07:47:35.515Z,6.22
2023-02-14T07:48:39.117Z,6.57
2023-02-14T07:49:36.005Z,6.97
2023-02-14T07:50:36.923Z,7.56
2023-02-14T07:51:38.339Z,7.98
2023-02-14T07:52:38.296Z,8.38
2023-02-14T07:53:38.604Z,8.54
2023-02-14T07:54:38.877Z,8.79
2023-02-14T07:55:39.529Z,8.82
2023-02-14T07:56:40.480Z,9
2023-02-14T07:57:41.433Z,8.96
2023-02-14T07:58:42.368Z,9.15
2023-02-14T07:59:42.338Z,9.15
2023-02-14T08:00:43.602Z,9.33
2023-02-14T08:01:44.157Z,9.52
2023-02-14T08:02:45.245Z,9.67
2023-02-14T08:03:45.055Z,9.62
2023-02-14T08:04:46.414Z,9.67
2023-02-14T08:05:47.094Z,9.62
2023-02-14T08:06:47.748Z,9.66
2023-02-14T08:07:48.716Z,9.7
2023-02-14T08:08:49.345Z,9.73
2023-02-14T08:09:50.561Z,10
2023-02-14T08:10:50.768Z,10.13
2023-02-14T08:11:51.496Z,10.18
2023-02-14T08:12:52.702Z,9.95
2023-02-14T08:13:53.142Z,9.66
2023-02-14T08:14:54.640Z,9.49
2023-02-14T08:15:55.735Z,9.39
2023-02-14T08:16:56.137Z,9.51
2023-02-14T08:17:56.802Z,9.72
2023-02-14T08:18:56.756Z,10.18
2023-02-14T08:19:57.692Z,10.46
2023-02-14T08:20:59.414Z,10.75
2023-02-14T08:21:58.497Z,11
2023-02-14T08:22:59.434Z,11.05
2023-02-14T08:24:00.227Z,11.23
2023-02-14T08:25:01.163Z,11.55
2023-02-14T08:26:02.408Z,11.83
2023-02-14T08:27:02.343Z,12.1
2023-02-14T08:28:02.710Z,12.28
2023-02-14T08:29:03.250Z,12.36
2023-02-14T08:30:03.740Z,12.37
2023-02-14T08:31:05.273Z,12.03
2023-02-14T08:32:04.421Z,11.38
2023-02-14T08:33:05.127Z,10.94
2023-02-14T08:34:05.637Z,10.71
2023-02-14T08:35:05.856Z,10.53
2023-02-14T08:36:06.796Z,10.3
2023-02-14T08:37:07.399Z,10.05
2023-02-14T08:38:08.644Z,9.74
2023-02-14T08:39:08.652Z,9.58
2023-02-14T08:40:09.869Z,9.33
2023-02-14T08:41:13.718Z,9.15
2023-02-14T08:42:10.785Z,9.18
2023-02-14T08:43:11.443Z,9.31
2023-02-14T08:44:11.886Z,9.54
2023-02-14T08:45:12.279Z,9.64
2023-02-14T08:46:13.056Z,10.1
2023-02-14T08:47:13.523Z,10.48
2023-02-14T08:48:13.828Z,10.51
2023-02-14T08:49:15.101Z,10.38
2023-02-14T08:50:15.342Z,10.53
2023-02-14T08:51:16.023Z,10.59
2023-02-14T08:52:16.140Z,10.92
2023-02-14T08:53:16.419Z,11.16
2023-02-14T08:54:17.140Z,11.48
2023-02-14T08:55:16.832Z,11.91
2023-02-14T08:56:18.198Z,12.05
2023-02-14T08:57:18.519Z,12.07
2023-02-14T08:58:18.799Z,12.08
2023-02-14T08:59:19.296Z,12.25
2023-02-14T09:00:19.846Z,12.17
2023-02-14T09:01:20.285Z,12.15
2023-02-14T09:02:20.532Z,12.14
2023-02-14T09:03:21.772Z,12.18
2023-02-14T09:04:22.614Z,12.29
2023-02-14T09:05:22.626Z,12.36
2023-02-14T09:06:23.985Z,12.58
2023-02-14T09:07:23.946Z,12.51
2023-02-14T09:08:25.246Z,12.36
2023-02-14T09:09:25.867Z,12.32
2023-02-14T09:10:26.230Z,12.14
2023-02-14T09:11:27.321Z,11.93
2023-02-14T09:12:27.339Z,11.58
2023-02-14T09:13:28.038Z,11.37
2023-02-14T09:14:32.309Z,10.95
2023-02-14T09:15:28.703Z,10.59
2023-02-14T09:16:30.182Z,10.3
2023-02-14T09:17:31.148Z,10.06
2023-02-14T09:18:31.118Z,9.91
2023-02-14T09:19:32.181Z,10.05
2023-02-14T09:20:32.539Z,10.27
2023-02-14T09:21:32.548Z,10.65
2023-02-14T09:22:33.980Z,11.1
2023-02-14T09:23:34.482Z,11.73
2023-02-14T09:24:34.881Z,12.28
2023-02-14T09:25:35.600Z,12.81
2023-02-14T09:26:36.303Z,13.21
2023-02-14T09:27:37.284Z,13.52
2023-02-14T09:28:38.512Z,13.75
2023-02-14T09:29:38.747Z,13.82
2023-02-14T09:30:39.102Z,13.97
2023-02-14T09:31:39.577Z,14.23
2023-02-14T09:32:39.571Z,14.59
2023-02-14T09:33:39.835Z,14.99
2023-02-14T09:34:39.918Z,15.18
2023-02-14T09:35:41.157Z,15.51
2023-02-14T09:36:41.376Z,16.16
2023-02-14T09:37:41.607Z,16.61
2023-02-14T09:38:41.817Z,16.89
2023-02-14T09:39:42.070Z,16.94
2023-02-14T09:40:43.010Z,17.22
2023-02-14T09:41:43.225Z,17.28
2023-02-14T09:42:43.566Z,17.52
2023-02-14T09:43:43.808Z,17.6
2023-02-14T09:44:43.965Z,17.23
2023-02-14T09:45:45.382Z,16.72
2023-02-14T09:46:45.861Z,16.31
2023-02-14T09:47:45.849Z,16.25
2023-02-14T09:48:47.163Z,16.31
2023-02-14T09:49:47.688Z,16.39
2023-02-14T09:50:48.179Z,16.29
2023-02-14T09:51:48.984Z,16.21
2023-02-14T09:52:49.522Z,15.9
2023-02-14T09:53:50.064Z,15.69
2023-02-14T09:54:51.366Z,15.6
2023-02-14T09:55:50.979Z,15.7
2023-02-14T09:56:57.591Z,15.87
2023-02-14T09:57:52.239Z,16
2023-02-14T09:58:52.458Z,16.22
2023-02-14T09:59:52.977Z,16.51
2023-02-14T10:00:54.069Z,16.74
2023-02-14T10:01:55.251Z,16.91
2023-02-14T10:02:55.635Z,16.95
2023-02-14T10:03:56.206Z,16.89
2023-02-14T10:04:57.084Z,16.76
2023-02-14T10:05:57.354Z,16.99
2023-02-14T10:06:57.371Z,16.99
2023-02-14T10:07:57.639Z,16.97
2023-02-14T10:08:58.881Z,16.69
2023-02-14T10:09:59.135Z,16.68
2023-02-14T10:11:00.763Z,16.61
2023-02-14T10:12:00.905Z,16.55
2023-02-14T10:13:02.137Z,16.65
2023-02-14T10:14:02.645Z,16.61
2023-02-14T10:15:02.954Z,16.66
2023-02-14T10:16:03.520Z,16.72
2023-02-14T10:17:05.200Z,16.66
2023-02-14T10:18:05.234Z,16.65
2023-02-14T10:19:05.933Z,16.66
2023-02-14T10:20:06.609Z,16.64
2023-02-14T10:21:08.615Z,16.86
2023-02-14T10:22:08.831Z,16.92
2023-02-14T10:23:09.766Z,16.99
2023-02-14T10:24:10.008Z,17.12
2023-02-14T10:25:10.835Z,17.12
2023-02-14T10:26:11.784Z,17.16
2023-02-14T10:27:16.127Z,17.53
2023-02-14T10:28:16.885Z,17.78
2023-02-14T10:29:13.919Z,17.98
2023-02-14T10:30:15.080Z,18.16
2023-02-14T10:31:15.721Z,18.39
2023-02-14T10:32:16.402Z,18.63
2023-02-14T10:33:16.900Z,18.92
2023-02-14T10:34:17.837Z,19.09
2023-02-14T10:35:17.908Z,19.23
2023-02-14T10:36:18.437Z,19.44
2023-02-14T10:37:18.660Z,19.62
2023-02-14T10:38:18.576Z,19.77
2023-02-14T10:39:18.836Z,19.84
2023-02-14T10:40:22.900Z,19.93
2023-02-14T10:41:21.121Z,19.9
2023-02-14T10:42:22.122Z,19.79
2023-02-14T10:43:22.109Z,19.56
2023-02-14T10:44:23.524Z,19.34
2023-02-14T10:45:23.300Z,19.37
2023-02-14T10:46:25.182Z,19.22
2023-02-14T10:47:25.450Z,19
2023-02-14T10:48:25.957Z,18.88
2023-02-14T10:49:26.646Z,18.78
2023-02-14T10:50:27.876Z,18.73
2023-02-14T10:51:27.880Z,18.53
2023-02-14T10:52:28.991Z,18.49
2023-02-14T10:53:28.925Z,18.16
2023-02-14T10:54:29.467Z,18.05
2023-02-14T10:55:38.288Z,18.03
2023-02-14T10:56:30.556Z,18.12
2023-02-14T10:57:31.603Z,18
2023-02-14T10:58:31.919Z,18.09
2023-02-14T10:59:32.588Z,17.97
2023-02-14T11:00:33.866Z,18.05
2023-02-14T11:01:34.998Z,18.02
2023-02-14T11:02:35.222Z,18.21
2023-02-14T11:03:35.642Z,18.58
2023-02-14T11:04:35.861Z,18.71
2023-02-14T11:05:37.230Z,18.73
2023-02-14T11:06:38.080Z,18.76
2023-02-14T11:07:38.679Z,18.91
2023-02-14T11:08:39.655Z,18.92
2023-02-14T11:09:40.427Z,18.86
2023-02-14T11:10:40.862Z,18.92
2023-02-14T11:11:41.553Z,18.88
2023-02-14T11:12:41.853Z,18.68
2023-02-14T11:13:42.205Z,18.51
2023-02-14T11:14:42.916Z,18.34
2023-02-14T11:15:43.981Z,18.39
2023-02-14T11:16:44.290Z,18.21
2023-02-14T11:17:44.793Z,18.27
2023-02-14T11:18:45.065Z,18.31
2023-02-14T11:19:45.007Z,18.39
2023-02-14T11:20:46.229Z,18.49
2023-02-14T11:21:47.161Z,18.48
2023-02-14T11:22:47.420Z,18.51
2023-02-14T11:23:48.370Z,18.51
2023-02-14T11:24:48.608Z,18.27
2023-02-14T11:25:49.668Z,18.3
2023-02-14T11:26:50.252Z,18.24
2023-02-14T11:27:51.631Z,18.16
2023-02-14T11:28:51.953Z,18.05
2023-02-14T11:29:53.336Z,18
2023-02-14T11:30:53.765Z,17.97
2023-02-14T11:31:53.683Z,17.98
2023-02-14T11:32:54.773Z,18.03
2023-02-14T11:33:54.819Z,18.19
2023-02-14T11:34:55.354Z,18.15
2023-02-14T11:35:55.488Z,18.12
2023-02-14T11:36:56.036Z,18
2023-02-14T11:37:56.283Z,17.93
2023-02-14T11:38:56.537Z,17.71
2023-02-14T11:39:57.875Z,17.53
2023-02-14T11:40:59.815Z,17.49
2023-02-14T11:41:59.901Z,17.52
2023-02-14T11:43:15.260Z,17.38
2023-02-14T11:44:00.583Z,17.37
2023-02-14T11:45:01.840Z,17.31
2023-02-14T11:46:02.381Z,17.34
2023-02-14T11:47:06.472Z,17.01
2023-02-14T11:48:02.853Z,16.97
2023-02-14T11:49:02.785Z,16.98
2023-02-14T11:50:03.997Z,16.98
2023-02-14T11:51:04.567Z,16.91
2023-02-14T11:52:04.918Z,16.8
2023-02-14T11:53:05.219Z,16.59
2023-02-14T11:54:05.172Z,16.57
2023-02-14T11:55:06.414Z,16.31
2023-02-14T11:56:07.054Z,16.31
2023-02-14T11:57:07.933Z,16.17
2023-02-14T11:58:08.515Z,16.06
2023-02-14T11:59:08.774Z,16.02
2023-02-14T12:00:09.385Z,16.03
2023-02-14T12:01:09.662Z,16.13
2023-02-14T12:02:10.722Z,16.39
2023-02-14T12:03:10.843Z,16.59
2023-02-14T12:04:12.203Z,16.66
2023-02-14T12:05:12.153Z,16.68
2023-02-14T12:06:12.907Z,16.65
2023-02-14T12:07:13.133Z,16.66
2023-02-14T12:08:14.098Z,16.68
2023-02-14T12:09:14.043Z,16.74
2023-02-14T12:10:14.968Z,16.79
2023-02-14T12:11:15.914Z,16.87
2023-02-14T12:12:16.856Z,17.01
2023-02-14T12:13:17.402Z,17.02
2023-02-14T12:14:17.954Z,17.13
2023-02-14T12:15:18.237Z,17.14
2023-02-14T12:16:18.764Z,17.13
2023-02-14T12:17:19.985Z,17.1
2023-02-14T12:18:19.938Z,17.16
2023-02-14T12:19:21.082Z,17.01
2023-02-14T12:20:21.319Z,16.99
2023-02-14T12:21:21.102Z,16.97
2023-02-14T12:22:22.327Z,17.02
2023-02-14T12:23:22.653Z,17.22
2023-02-14T12:24:22.602Z,17.34
2023-02-14T12:25:23.148Z,17.46
2023-02-14T12:26:23.892Z,17.39
2023-02-14T12:27:24.392Z,17.47
2023-02-14T12:28:25.060Z,17.3
2023-02-14T12:29:25.608Z,17.2
2023-02-14T12:30:26.359Z,17.2
2023-02-14T12:31:27.133Z,17.09
2023-02-14T12:32:27.778Z,17.07
2023-02-14T12:33:28.237Z,17.19
2023-02-14T12:34:29.464Z,17.2
2023-02-14T12:35:29.682Z,17.23
2023-02-14T12:36:30.733Z,17.32
2023-02-14T12:37:31.688Z,17.34
2023-02-14T12:38:32.918Z,17.34
2023-02-14T12:39:33.139Z,17.2
2023-02-14T12:40:33.771Z,17.1
2023-02-14T12:41:34.428Z,17.09
2023-02-14T12:42:35.124Z,17.14
2023-02-14T12:43:35.384Z,17.2
2023-02-14T12:58:45.330Z,17.04
2023-02-14T12:59:45.602Z,16.99
2023-02-14T13:00:46.553Z,16.89
2023-02-14T13:01:46.505Z,16.8
2023-02-14T13:02:47.923Z,16.72
2023-02-14T13:03:48.281Z,16.72
2023-02-14T13:04:48.516Z,16.69
2023-02-14T13:05:49.044Z,16.69
2023-02-14T13:06:48.885Z,16.79
2023-02-14T13:07:49.116Z,16.8
2023-02-14T13:08:50.343Z,16.79
2023-02-14T13:09:51.152Z,16.79
2023-02-14T13:10:52.199Z,16.77
2023-02-14T13:11:52.751Z,16.76
2023-02-14T13:12:53.707Z,16.87
2023-02-14T13:13:54.302Z,16.89
2023-02-14T13:14:54.861Z,16.99
2023-02-14T13:15:57.448Z,17.16
2023-02-14T13:16:56.148Z,17.14
2023-02-14T13:17:55.808Z,17.12
2023-02-14T13:18:57.318Z,17.16
2023-02-14T13:19:57.580Z,17.17
2023-02-14T13:20:59.461Z,17.17
2023-02-14T13:22:00.150Z,17.31
2023-02-14T13:23:00.509Z,17.32
2023-02-14T13:24:01.253Z,17.32
2023-02-14T13:25:01.767Z,17.17
2023-02-14T13:26:02.327Z,17.13
2023-02-14T13:27:02.291Z,17.14
2023-02-14T13:28:02.519Z,17.12
2023-02-14T13:29:03.600Z,17.1
2023-02-14T13:30:04.293Z,16.94